Time;durP1;ratioP1;P1;durP2;ratioP2;P2;SDS_P1;SDS_P2;PMS_P1;PMS_P2;Temp;Humidity;BMP_temperature;BMP_pressure;BME280_temperature;BME280_humidity;BME280_pressure;Samples;Min_cycle;Max_cycle;Signal;HPM_P1;HPM_P2
2022/05/19 00:00:34;;;;;;;5.90;5.40;;;;;;;;;;2082691;28;20168;-56
2022/05/19 00:01:34;;;;;;;7.75;6.68;;;;;;;;;;2083236;28;20169;-56
2022/05/19 00:02:34;;;;;;;6.93;5.53;;;;;;;;;;2083163;28;20566;-54
2022/05/19 00:03:35;;;;;;;5.50;5.00;;;;;;;;;;2083160;28;20192;-58
2022/05/19 00:04:36;;;;;;;6.47;5.50;;;;;;;;;;2082680;28;20191;-56
2022/05/19 00:05:36;;;;;;;6.60;5.85;;;;;;;;;;2082288;28;20180;-57
2022/05/19 00:06:38;;;;;;;5.47;5.05;;;;;;;;;;2082593;28;20613;-55
2022/05/19 00:07:38;;;;;;;5.03;4.63;;;;;;;;;;2083380;28;20194;-58
2022/05/19 00:08:38;;;;;;;5.78;5.28;;;;;;;;;;2083331;28;20810;-54
2022/05/19 00:09:39;;;;;;;6.10;5.65;;;;;;;;;;2082705;28;20188;-59
2022/05/19 00:10:39;;;;;;;5.88;5.25;;;;;;;;;;2083122;28;20179;-58
2022/05/19 00:11:39;;;;;;;5.70;5.20;;;;;;;;;;2082040;28;20267;-58
2022/05/19 00:12:40;;;;;;;4.85;4.53;;;;;;;;;;2082508;28;20180;-56
2022/05/19 00:13:40;;;;;;;7.03;6.32;;;;;;;;;;2083100;28;20160;-56
2022/05/19 00:14:41;;;;;;;4.97;4.57;;;;;;;;;;2082651;28;20258;-57
2022/05/19 00:15:41;;;;;;;6.15;5.55;;;;;;;;;;2082393;28;20251;-55
2022/05/19 00:16:43;;;;;;;6.43;5.22;;;;;;;;;;2082550;28;20200;-52
2022/05/19 00:17:44;;;;;;;5.28;4.85;;;;;;;;;;2082845;28;20176;-53
2022/05/19 00:18:46;;;;;;;7.85;5.05;;;;;;;;;;2083191;28;20167;-57
2022/05/19 00:19:46;;;;;;;5.45;5.05;;;;;;;;;;2082478;28;20211;-54
2022/05/19 00:20:47;;;;;;;5.07;4.70;;;;;;;;;;2082901;28;20430;-55
2022/05/19 00:21:47;;;;;;;7.13;6.18;;;;;;;;;;2083113;28;20298;-52
2022/05/19 00:22:47;;;;;;;5.07;4.57;;;;;;;;;;2083012;28;20176;-57
2022/05/19 00:23:48;;;;;;;5.28;4.75;;;;;;;;;;2082296;28;20165;-55
2022/05/19 00:24:48;;;;;;;5.05;4.70;;;;;;;;;;2081396;28;20215;-57
2022/05/19 00:25:48;;;;;;;5.25;4.85;;;;;;;;;;2082087;28;20166;-57
2022/05/19 00:26:48;;;;;;;5.60;5.20;;;;;;;;;;2082704;28;20195;-57
2022/05/19 00:27:49;;;;;;;5.57;4.22;;;;;;;;;;2083044;28;20180;-58
2022/05/19 00:28:49;;;;;;;7.18;4.82;;;;;;;;;;2082859;28;20172;-58
2022/05/19 00:29:49;;;;;;;5.38;4.88;;;;;;;;;;2082471;28;20263;-57
2022/05/19 00:30:51;;;;;;;5.15;4.65;;;;;;;;;;2082940;28;20606;-56
2022/05/19 00:31:51;;;;;;;5.75;4.28;;;;;;;;;;2082642;28;20184;-55
2022/05/19 00:32:51;;;;;;;4.68;4.28;;;;;;;;;;2082797;28;20279;-54
2022/05/19 00:33:52;;;;;;;4.63;4.20;;;;;;;;;;2082685;28;20180;-49
2022/05/19 00:34:52;;;;;;;4.55;4.25;;;;;;;;;;2082262;28;20318;-53
2022/05/19 00:35:52;;;;;;;5.57;5.07;;;;;;;;;;2082880;28;20164;-58
2022/05/19 00:36:56;;;;;;;4.47;4.18;;;;;;;;;;2082709;28;20183;-57
2022/05/19 00:37:56;;;;;;;5.70;5.07;;;;;;;;;;2081984;28;20182;-56
2022/05/19 00:38:57;;;;;;;5.07;4.57;;;;;;;;;;2082265;28;20176;-56
2022/05/19 00:39:57;;;;;;;4.78;4.38;;;;;;;;;;2082223;28;20196;-57
2022/05/19 00:40:58;;;;;;;5.15;4.75;;;;;;;;;;2082728;28;20168;-56
2022/05/19 00:43:27;;;;;;;6.05;5.13;;;;;;;;;;2082601;28;20180;-55
2022/05/19 00:44:27;;;;;;;4.85;4.35;;;;;;;;;;2082072;28;20181;-55
2022/05/19 00:45:33;;;;;;;4.68;4.28;;;;;;;;;;2081876;28;20203;-57
2022/05/19 00:46:42;;;;;;;5.38;4.20;;;;;;;;;;2074375;28;20208;-55
2022/05/19 00:47:54;;;;;;;7.45;5.55;;;;;;;;;;2082073;28;20169;-55
2022/05/19 00:48:57;;;;;;;5.28;4.78;;;;;;;;;;2082496;28;20243;-56
2022/05/19 00:49:57;;;;;;;6.28;5.20;;;;;;;;;;2082279;28;20184;-55
2022/05/19 00:51:02;;;;;;;4.90;4.50;;;;;;;;;;2082613;28;20192;-58
2022/05/19 00:52:18;;;;;;;4.70;4.30;;;;;;;;;;2082443;28;20327;-55
2022/05/19 00:53:38;;;;;;;7.18;4.95;;;;;;;;;;2081919;28;20199;-54
2022/05/19 00:54:40;;;;;;;5.60;4.53;;;;;;;;;;2081464;28;20191;-57
2022/05/19 00:55:42;;;;;;;4.80;4.40;;;;;;;;;;2082496;28;20200;-58
2022/05/19 00:56:49;;;;;;;4.40;4.05;;;;;;;;;;2082430;28;20215;-57
2022/05/19 00:57:52;;;;;;;5.65;4.30;;;;;;;;;;2082686;28;20174;-59
2022/05/19 00:58:52;;;;;;;5.43;4.25;;;;;;;;;;2082546;28;20230;-53
2022/05/19 00:59:57;;;;;;;4.68;4.35;;;;;;;;;;2082392;28;20212;-56
2022/05/19 01:00:57;;;;;;;4.97;4.40;;;;;;;;;;2082782;28;20200;-53
2022/05/19 01:01:58;;;;;;;5.20;4.68;;;;;;;;;;2081973;28;20172;-57
2022/05/19 01:03:00;;;;;;;4.40;4.10;;;;;;;;;;2081788;28;20192;-57
2022/05/19 01:04:06;;;;;;;4.70;4.28;;;;;;;;;;2082022;28;20161;-55
2022/05/19 01:05:33;;;;;;;4.80;4.40;;;;;;;;;;2082234;28;20179;-57
2022/05/19 01:06:34;;;;;;;5.35;4.35;;;;;;;;;;2078273;28;20211;-57
2022/05/19 01:07:37;;;;;;;4.57;4.10;;;;;;;;;;2082093;28;20547;-56
2022/05/19 01:08:42;;;;;;;4.43;4.03;;;;;;;;;;2082301;28;20203;-54
2022/05/19 01:09:43;;;;;;;5.60;4.28;;;;;;;;;;2081858;28;20179;-60
2022/05/19 01:10:44;;;;;;;4.43;4.13;;;;;;;;;;2081986;28;20255;-55
2022/05/19 01:11:44;;;;;;;4.78;4.30;;;;;;;;;;2081908;28;20251;-56
2022/05/19 01:12:46;;;;;;;6.65;4.53;;;;;;;;;;2082554;28;20229;-55
2022/05/19 01:13:47;;;;;;;4.63;3.85;;;;;;;;;;2082368;28;20172;-56
2022/05/19 01:14:47;;;;;;;5.57;4.22;;;;;;;;;;2081713;28;20620;-54
2022/05/19 01:15:48;;;;;;;3.83;3.63;;;;;;;;;;2082507;28;20629;-56
2022/05/19 01:16:50;;;;;;;4.25;3.78;;;;;;;;;;2082517;28;20568;-59
2022/05/19 01:17:50;;;;;;;4.35;4.03;;;;;;;;;;2082283;28;20172;-54
2022/05/19 01:18:50;;;;;;;4.35;4.05;;;;;;;;;;2082157;28;20164;-56
2022/05/19 01:19:55;;;;;;;4.22;3.92;;;;;;;;;;2082122;28;20208;-54
2022/05/19 01:20:58;;;;;;;5.55;4.18;;;;;;;;;;2082317;28;20152;-56
2022/05/19 01:22:04;;;;;;;6.93;4.10;;;;;;;;;;2082543;28;20550;-58
2022/05/19 01:23:13;;;;;;;4.95;4.38;;;;;;;;;;2082364;28;20183;-55
2022/05/19 01:24:16;;;;;;;4.57;4.25;;;;;;;;;;2082040;28;20164;-56
2022/05/19 01:25:26;;;;;;;4.45;4.15;;;;;;;;;;2082374;28;20637;-56
2022/05/19 01:26:35;;;;;;;4.65;4.28;;;;;;;;;;2082643;28;20188;-57
2022/05/19 01:27:36;;;;;;;5.35;4.00;;;;;;;;;;2082166;28;20188;-57
2022/05/19 01:28:36;;;;;;;4.47;4.05;;;;;;;;;;2081909;28;20605;-55
2022/05/19 01:29:36;;;;;;;5.45;4.15;;;;;;;;;;2082289;28;20180;-57
2022/05/19 01:30:37;;;;;;;5.07;4.57;;;;;;;;;;2082307;28;20183;-54
2022/05/19 01:31:43;;;;;;;4.22;3.80;;;;;;;;;;2082175;28;20168;-57
2022/05/19 01:32:43;;;;;;;4.93;4.20;;;;;;;;;;2082066;28;20165;-56
2022/05/19 01:33:43;;;;;;;3.80;3.50;;;;;;;;;;2082174;28;20214;-53
2022/05/19 01:34:44;;;;;;;4.10;3.80;;;;;;;;;;2081506;28;20647;-55
2022/05/19 01:35:44;;;;;;;4.97;4.57;;;;;;;;;;2082299;28;20594;-58
2022/05/19 01:36:44;;;;;;;4.70;4.30;;;;;;;;;;2082317;28;20642;-54
2022/05/19 01:37:47;;;;;;;4.22;3.83;;;;;;;;;;2082149;28;20172;-56
2022/05/19 01:38:57;;;;;;;6.07;5.60;;;;;;;;;;2081924;28;20192;-54
2022/05/19 01:40:06;;;;;;;4.57;4.15;;;;;;;;;;2082192;28;20203;-59
2022/05/19 01:41:09;;;;;;;5.07;4.60;;;;;;;;;;2081822;28;20756;-55
2022/05/19 01:42:34;;;;;;;4.82;4.40;;;;;;;;;;2082264;28;20176;-56
2022/05/19 01:43:42;;;;;;;4.57;4.18;;;;;;;;;;2082244;28;20624;-55
2022/05/19 01:45:00;;;;;;;4.70;4.40;;;;;;;;;;2081464;28;20234;-58
2022/05/19 01:46:05;;;;;;;4.72;4.13;;;;;;;;;;2082015;28;20614;-56
2022/05/19 01:47:18;;;;;;;5.28;4.78;;;;;;;;;;2082117;28;20168;-58
2022/05/19 01:48:34;;;;;;;4.53;4.13;;;;;;;;;;2082072;28;20168;-57
2022/05/19 01:49:41;;;;;;;5.18;4.30;;;;;;;;;;2081113;28;20262;-56
2022/05/19 01:50:48;;;;;;;5.00;4.60;;;;;;;;;;2082207;28;20183;-56
2022/05/19 01:51:58;;;;;;;5.38;4.85;;;;;;;;;;2081379;28;20176;-54
2022/05/19 01:53:04;;;;;;;4.63;4.28;;;;;;;;;;2081383;28;20252;-54
2022/05/19 01:54:05;;;;;;;5.07;4.68;;;;;;;;;;2081654;28;20255;-55
2022/05/19 01:55:14;;;;;;;4.75;4.43;;;;;;;;;;2081791;28;20168;-55
2022/05/19 01:56:30;;;;;;;6.65;4.72;;;;;;;;;;2082090;28;20195;-55
2022/05/19 01:57:50;;;;;;;5.10;4.63;;;;;;;;;;2081236;28;20164;-54
2022/05/19 01:59:09;;;;;;;4.80;4.32;;;;;;;;;;2081322;28;20766;-57
2022/05/19 02:00:12;;;;;;;5.68;5.22;;;;;;;;;;2082468;28;20218;-58
2022/05/19 02:01:17;;;;;;;6.40;5.10;;;;;;;;;;2081208;28;20247;-54
2022/05/19 02:02:30;;;;;;;5.25;4.85;;;;;;;;;;2081910;28;20239;-57
2022/05/19 02:03:49;;;;;;;6.13;5.03;;;;;;;;;;2081926;28;20156;-56
2022/05/19 02:04:55;;;;;;;6.10;5.50;;;;;;;;;;2082001;28;20168;-50
2022/05/19 02:06:10;;;;;;;5.00;4.60;;;;;;;;;;2082583;28;20164;-56
2022/05/19 02:07:12;;;;;;;6.55;4.78;;;;;;;;;;2082440;28;20175;-56
2022/05/19 02:08:17;;;;;;;7.97;4.93;;;;;;;;;;2082027;28;20172;-54
2022/05/19 02:09:36;;;;;;;5.72;5.28;;;;;;;;;;2082450;28;20191;-55
2022/05/19 02:10:38;;;;;;;5.70;5.20;;;;;;;;;;2082423;28;20172;-56
2022/05/19 02:11:41;;;;;;;5.15;4.75;;;;;;;;;;2081581;28;20180;-56
2022/05/19 02:12:42;;;;;;;5.70;5.20;;;;;;;;;;2081806;28;20318;-55
2022/05/19 02:13:43;;;;;;;5.57;5.05;;;;;;;;;;2081582;28;20171;-55
2022/05/19 02:14:50;;;;;;;6.15;5.07;;;;;;;;;;2081500;28;20234;-54
2022/05/19 02:15:52;;;;;;;5.15;4.65;;;;;;;;;;2081533;28;20165;-54
2022/05/19 02:16:52;;;;;;;5.57;4.75;;;;;;;;;;2081021;28;20653;-56
2022/05/19 02:17:53;;;;;;;5.07;4.68;;;;;;;;;;2081099;28;20183;-52
2022/05/19 02:18:53;;;;;;;5.68;5.28;;;;;;;;;;2081509;28;20168;-56
2022/05/19 02:19:56;;;;;;;6.88;4.80;;;;;;;;;;2081597;28;20236;-56
2022/05/19 02:20:57;;;;;;;5.60;5.10;;;;;;;;;;2080083;28;20188;-55
2022/05/19 02:21:58;;;;;;;5.68;5.13;;;;;;;;;;2081423;28;20672;-54
2022/05/19 02:22:59;;;;;;;5.78;5.25;;;;;;;;;;2081618;28;20256;-55
2022/05/19 02:24:01;;;;;;;5.85;5.45;;;;;;;;;;2080224;28;20226;-52
2022/05/19 02:25:05;;;;;;;5.97;5.45;;;;;;;;;;2081635;28;20184;-56
2022/05/19 02:26:05;;;;;;;5.78;5.38;;;;;;;;;;2081728;28;20211;-57
2022/05/19 02:27:41;;;;;;;5.65;5.22;;;;;;;;;;2081846;28;20571;-55
2022/05/19 02:28:44;;;;;;;6.68;6.13;;;;;;;;;;2048492;29;20604;-56
2022/05/19 02:29:44;;;;;;;8.65;5.40;;;;;;;;;;2046639;29;20190;-55
2022/05/19 02:30:45;;;;;;;6.18;5.57;;;;;;;;;;2044333;28;20370;-55
2022/05/19 02:31:45;;;;;;;5.32;4.82;;;;;;;;;;2073796;28;20161;-55
2022/05/19 02:32:46;;;;;;;6.35;5.45;;;;;;;;;;2073655;28;20181;-57
2022/05/19 02:33:46;;;;;;;5.50;4.97;;;;;;;;;;2072937;28;20649;-56
2022/05/19 02:34:47;;;;;;;5.35;4.85;;;;;;;;;;2076197;28;20172;-56
2022/05/19 02:35:47;;;;;;;5.63;5.22;;;;;;;;;;2081786;28;20195;-53
2022/05/19 02:36:48;;;;;;;5.35;4.80;;;;;;;;;;2081880;28;20184;-56
2022/05/19 02:37:49;;;;;;;6.65;5.72;;;;;;;;;;2081861;28;20650;-56
2022/05/19 02:38:50;;;;;;;5.93;5.32;;;;;;;;;;2080886;28;20267;-56
2022/05/19 02:39:51;;;;;;;7.00;5.20;;;;;;;;;;2080951;28;20245;-56
2022/05/19 02:40:51;;;;;;;5.22;4.82;;;;;;;;;;2081661;28;20195;-55
2022/05/19 02:41:52;;;;;;;5.85;5.32;;;;;;;;;;2081803;28;20173;-55
2022/05/19 02:42:53;;;;;;;5.35;4.85;;;;;;;;;;2081772;28;20178;-55
2022/05/19 02:43:53;;;;;;;5.70;5.25;;;;;;;;;;2081884;28;20175;-55
2022/05/19 02:44:53;;;;;;;6.38;5.90;;;;;;;;;;2081435;28;20604;-56
2022/05/19 02:45:53;;;;;;;7.00;6.00;;;;;;;;;;2081652;28;20175;-51
2022/05/19 02:46:54;;;;;;;6.82;6.22;;;;;;;;;;2081541;28;20173;-54
2022/05/19 02:47:54;;;;;;;5.40;5.00;;;;;;;;;;2081262;28;20680;-55
2022/05/19 02:48:59;;;;;;;6.20;4.93;;;;;;;;;;2081715;28;20180;-54
2022/05/19 02:49:59;;;;;;;5.55;5.05;;;;;;;;;;2080987;28;20539;-56
2022/05/19 02:51:00;;;;;;;5.68;5.20;;;;;;;;;;2081719;28;20207;-55
2022/05/19 02:52:00;;;;;;;5.95;5.00;;;;;;;;;;2080931;28;20601;-57
2022/05/19 02:53:00;;;;;;;5.38;4.88;;;;;;;;;;2072835;28;20173;-55
2022/05/19 02:54:00;;;;;;;5.45;5.00;;;;;;;;;;2080629;28;20176;-56
2022/05/19 02:55:01;;;;;;;5.30;4.80;;;;;;;;;;2081546;28;20259;-58
2022/05/19 02:56:01;;;;;;;5.50;4.97;;;;;;;;;;2081499;28;20180;-56
2022/05/19 02:57:02;;;;;;;6.60;5.68;;;;;;;;;;2081640;28;20210;-58
2022/05/19 02:58:02;;;;;;;6.28;5.47;;;;;;;;;;2081471;28;20176;-52
2022/05/19 02:59:04;;;;;;;5.07;4.72;;;;;;;;;;2081547;28;20259;-55
2022/05/19 03:00:05;;;;;;;5.13;4.80;;;;;;;;;;2081459;28;20207;-52
2022/05/19 03:01:07;;;;;;;5.28;4.97;;;;;;;;;;2081761;28;20232;-56
2022/05/19 03:02:07;;;;;;;5.93;5.00;;;;;;;;;;2081431;28;20264;-55
2022/05/19 03:03:07;;;;;;;5.97;5.53;;;;;;;;;;2081642;28;20190;-56
2022/05/19 03:04:08;;;;;;;7.80;5.55;;;;;;;;;;2081048;28;20172;-57
2022/05/19 03:05:09;;;;;;;5.70;5.22;;;;;;;;;;2081500;28;20168;-52
2022/05/19 03:06:09;;;;;;;5.72;5.32;;;;;;;;;;2081312;28;20219;-53
2022/05/19 03:07:09;;;;;;;5.90;5.40;;;;;;;;;;2081247;28;20172;-56
2022/05/19 03:08:10;;;;;;;6.47;5.80;;;;;;;;;;2081297;28;20187;-57
2022/05/19 03:09:10;;;;;;;6.28;5.75;;;;;;;;;;2081531;28;20180;-53
2022/05/19 03:10:11;;;;;;;6.97;5.70;;;;;;;;;;2081241;28;20172;-52
2022/05/19 03:11:11;;;;;;;6.55;5.45;;;;;;;;;;2080853;28;20669;-57
2022/05/19 03:12:12;;;;;;;6.65;6.15;;;;;;;;;;2080992;28;20247;-53
2022/05/19 03:13:17;;;;;;;6.32;5.57;;;;;;;;;;2081813;28;20199;-56
2022/05/19 03:14:18;;;;;;;5.53;5.03;;;;;;;;;;2081149;28;20160;-56
2022/05/19 03:15:18;;;;;;;6.22;5.43;;;;;;;;;;2081420;28;20204;-55
2022/05/19 03:16:18;;;;;;;6.18;5.57;;;;;;;;;;2081186;28;20230;-54
2022/05/19 03:17:19;;;;;;;7.97;6.18;;;;;;;;;;2081116;28;20157;-53
2022/05/19 03:18:23;;;;;;;6.35;5.75;;;;;;;;;;2081539;28;20204;-53
2022/05/19 03:19:24;;;;;;;6.65;6.15;;;;;;;;;;2081212;28;20172;-56
2022/05/19 03:20:24;;;;;;;6.47;5.88;;;;;;;;;;2081335;28;20306;-58
2022/05/19 03:21:24;;;;;;;5.60;5.10;;;;;;;;;;2081577;28;20195;-57
2022/05/19 03:22:26;;;;;;;6.18;5.65;;;;;;;;;;2081598;28;20179;-54
2022/05/19 03:23:27;;;;;;;5.80;5.45;;;;;;;;;;2081606;28;20172;-55
2022/05/19 03:24:27;;;;;;;6.53;6.03;;;;;;;;;;2081072;28;20648;-56
2022/05/19 03:25:27;;;;;;;6.65;5.90;;;;;;;;;;2081149;28;20204;-54
2022/05/19 03:26:27;;;;;;;7.72;5.32;;;;;;;;;;2080772;28;20192;-54
2022/05/19 03:27:31;;;;;;;7.18;5.57;;;;;;;;;;2080684;28;20172;-58
2022/05/19 03:28:32;;;;;;;6.38;5.82;;;;;;;;;;2081585;28;20180;-55
2022/05/19 03:29:32;;;;;;;6.07;5.50;;;;;;;;;;2081151;28;20173;-54
2022/05/19 03:30:32;;;;;;;6.13;5.63;;;;;;;;;;2081586;28;20231;-56
2022/05/19 03:31:33;;;;;;;6.93;5.35;;;;;;;;;;2081767;28;20178;-56
2022/05/19 03:32:33;;;;;;;5.97;5.38;;;;;;;;;;2082964;28;20215;-56
2022/05/19 03:33:34;;;;;;;6.03;5.43;;;;;;;;;;2083236;28;20175;-54
2022/05/19 03:34:34;;;;;;;6.55;5.43;;;;;;;;;;2082605;28;20176;-56
2022/05/19 03:35:34;;;;;;;5.78;5.32;;;;;;;;;;2083397;28;20176;-55
2022/05/19 03:36:35;;;;;;;6.00;5.57;;;;;;;;;;2083091;28;20196;-55
2022/05/19 03:37:35;;;;;;;5.97;5.35;;;;;;;;;;2082890;28;20313;-56
2022/05/19 03:38:36;;;;;;;6.10;5.47;;;;;;;;;;2082952;28;20219;-57
2022/05/19 03:39:36;;;;;;;7.03;6.25;;;;;;;;;;2082719;28;20176;-58
2022/05/19 03:40:37;;;;;;;5.85;5.47;;;;;;;;;;2082077;28;20180;-55
2022/05/19 03:41:37;;;;;;;6.30;5.80;;;;;;;;;;2082540;28;20168;-53
2022/05/19 03:42:39;;;;;;;6.05;5.45;;;;;;;;;;2082559;28;20181;-56
2022/05/19 03:43:39;;;;;;;6.03;5.47;;;;;;;;;;2074197;28;20514;-57
2022/05/19 03:44:39;;;;;;;7.50;5.47;;;;;;;;;;2081960;28;20579;-57
2022/05/19 03:45:40;;;;;;;5.35;4.90;;;;;;;;;;2083084;28;20176;-60
2022/05/19 03:46:40;;;;;;;5.95;5.38;;;;;;;;;;2083024;28;20212;-54
2022/05/19 03:47:40;;;;;;;6.68;6.03;;;;;;;;;;2082916;28;20176;-52
2022/05/19 03:48:41;;;;;;;6.63;5.65;;;;;;;;;;2082469;28;20172;-57
2022/05/19 03:49:41;;;;;;;6.70;5.97;;;;;;;;;;2081748;28;20537;-55
2022/05/19 03:50:45;;;;;;;5.80;5.40;;;;;;;;;;2082798;28;20180;-58
2022/05/19 03:51:46;;;;;;;5.95;5.45;;;;;;;;;;2082719;28;20547;-54
2022/05/19 03:52:46;;;;;;;5.82;5.38;;;;;;;;;;2082427;28;20181;-56
2022/05/19 03:53:46;;;;;;;7.22;6.30;;;;;;;;;;2082228;28;20172;-56
2022/05/19 03:54:47;;;;;;;6.68;5.97;;;;;;;;;;2082426;28;20567;-55
2022/05/19 03:55:47;;;;;;;5.97;5.57;;;;;;;;;;2082899;28;20172;-53
2022/05/19 03:56:47;;;;;;;5.50;5.10;;;;;;;;;;2082652;28;20180;-57
2022/05/19 03:57:47;;;;;;;5.93;5.45;;;;;;;;;;2082844;28;20544;-55
2022/05/19 03:58:48;;;;;;;6.45;5.95;;;;;;;;;;2082924;28;20226;-55
2022/05/19 03:59:49;;;;;;;5.88;5.45;;;;;;;;;;2082665;28;20269;-58
2022/05/19 04:00:49;;;;;;;5.65;5.25;;;;;;;;;;2082850;28;20184;-55
2022/05/19 04:01:50;;;;;;;10.70;7.10;;;;;;;;;;2083150;28;20179;-54
2022/05/19 04:02:50;;;;;;;9.02;8.13;;;;;;;;;;2082801;28;20170;-52
2022/05/19 04:03:50;;;;;;;6.82;6.28;;;;;;;;;;2082232;28;20211;-55
2022/05/19 04:04:51;;;;;;;6.60;6.00;;;;;;;;;;2081765;28;20183;-57
2022/05/19 04:05:51;;;;;;;7.45;6.43;;;;;;;;;;2082877;28;20172;-54
2022/05/19 04:06:52;;;;;;;7.10;6.47;;;;;;;;;;2082217;28;20623;-56
2022/05/19 04:07:52;;;;;;;8.18;5.88;;;;;;;;;;2082389;28;20599;-57
2022/05/19 04:08:54;;;;;;;10.60;6.72;;;;;;;;;;2082177;28;20175;-53
2022/05/19 04:09:54;;;;;;;7.70;6.57;;;;;;;;;;2082912;28;20169;-54
2022/05/19 04:10:56;;;;;;;5.93;5.45;;;;;;;;;;2083035;28;20649;-54
2022/05/19 04:11:57;;;;;;;5.90;5.10;;;;;;;;;;2083105;28;20179;-54
2022/05/19 04:12:59;;;;;;;5.93;5.55;;;;;;;;;;2082732;28;20501;-53
2022/05/19 04:13:59;;;;;;;6.20;5.50;;;;;;;;;;2082859;28;20175;-58
2022/05/19 04:14:59;;;;;;;6.30;5.68;;;;;;;;;;2082880;28;20527;-55
2022/05/19 04:16:00;;;;;;;6.47;5.90;;;;;;;;;;2082878;28;20172;-52
2022/05/19 04:17:00;;;;;;;6.07;5.57;;;;;;;;;;2082443;28;20180;-53
2022/05/19 04:18:00;;;;;;;9.70;5.40;;;;;;;;;;2083665;28;20175;-53
2022/05/19 04:19:01;;;;;;;5.65;5.15;;;;;;;;;;2083460;28;20165;-55
2022/05/19 04:20:02;;;;;;;5.65;5.25;;;;;;;;;;2083219;28;20208;-55
2022/05/19 04:21:03;;;;;;;5.28;4.80;;;;;;;;;;2082236;28;20240;-52
2022/05/19 04:22:04;;;;;;;5.60;5.10;;;;;;;;;;2082171;28;20264;-55
2022/05/19 04:23:04;;;;;;;5.97;4.72;;;;;;;;;;2082551;28;20161;-56
2022/05/19 04:24:06;;;;;;;6.28;4.93;;;;;;;;;;2082395;28;20181;-56
2022/05/19 04:25:07;;;;;;;5.82;5.05;;;;;;;;;;2074267;28;20165;-56
2022/05/19 04:26:08;;;;;;;6.00;5.28;;;;;;;;;;2074651;28;20189;-54
2022/05/19 04:27:11;;;;;;;5.25;4.85;;;;;;;;;;2081491;28;20172;-56
2022/05/19 04:28:11;;;;;;;5.18;4.78;;;;;;;;;;2082748;28;20161;-53
2022/05/19 04:29:11;;;;;;;6.93;4.78;;;;;;;;;;2082639;28;20609;-57
2022/05/19 04:30:11;;;;;;;5.68;5.20;;;;;;;;;;2082142;28;20251;-56
2022/05/19 04:31:12;;;;;;;8.68;5.43;;;;;;;;;;2082662;28;20184;-52
2022/05/19 04:32:12;;;;;;;5.53;5.03;;;;;;;;;;2082530;28;20169;-54
2022/05/19 04:33:13;;;;;;;5.30;4.82;;;;;;;;;;2082549;28;20164;-51
2022/05/19 04:34:13;;;;;;;5.47;4.90;;;;;;;;;;2082169;28;20582;-57
2022/05/19 04:35:14;;;;;;;5.05;4.55;;;;;;;;;;2082665;28;20247;-54
2022/05/19 04:36:14;;;;;;;5.07;4.38;;;;;;;;;;2082547;28;20581;-54
2022/05/19 04:37:14;;;;;;;4.68;4.40;;;;;;;;;;2082666;28;20180;-54
2022/05/19 04:38:15;;;;;;;5.55;5.05;;;;;;;;;;2082489;28;20184;-53
2022/05/19 04:39:16;;;;;;;5.65;5.03;;;;;;;;;;2080243;28;20199;-58
2022/05/19 04:40:17;;;;;;;5.35;4.95;;;;;;;;;;2078536;28;20588;-54
2022/05/19 04:41:17;;;;;;;5.32;4.93;;;;;;;;;;2081863;28;20191;-57
2022/05/19 04:42:17;;;;;;;8.27;5.03;;;;;;;;;;2082292;28;20549;-57
2022/05/19 04:43:22;;;;;;;9.23;4.60;;;;;;;;;;2082578;28;20546;-52
2022/05/19 04:44:23;;;;;;;4.65;4.30;;;;;;;;;;2081450;28;20176;-56
2022/05/19 04:45:23;;;;;;;5.50;4.97;;;;;;;;;;2082545;28;20171;-53
2022/05/19 04:46:23;;;;;;;5.28;4.88;;;;;;;;;;2082292;28;20192;-58
2022/05/19 04:47:24;;;;;;;4.85;4.40;;;;;;;;;;2081986;28;20223;-56
2022/05/19 04:48:25;;;;;;;5.25;4.85;;;;;;;;;;2081781;28;20263;-59
2022/05/19 04:49:25;;;;;;;5.35;4.25;;;;;;;;;;2074551;28;20227;-56
2022/05/19 04:50:25;;;;;;;4.70;4.30;;;;;;;;;;2081824;28;20709;-55
2022/05/19 04:51:26;;;;;;;5.25;4.75;;;;;;;;;;2073659;28;20187;-55
2022/05/19 04:52:26;;;;;;;7.97;5.00;;;;;;;;;;2081892;28;20522;-53
2022/05/19 04:53:26;;;;;;;7.45;4.63;;;;;;;;;;2082506;28;20203;-54
2022/05/19 04:54:26;;;;;;;4.78;4.38;;;;;;;;;;2081980;28;20234;-55
2022/05/19 04:55:27;;;;;;;5.72;4.90;;;;;;;;;;2082607;28;20169;-51
2022/05/19 04:56:28;;;;;;;6.60;4.40;;;;;;;;;;2082479;28;20562;-54
2022/05/19 04:57:28;;;;;;;5.03;4.57;;;;;;;;;;2082630;28;20191;-56
2022/05/19 04:58:28;;;;;;;4.72;4.00;;;;;;;;;;2081623;28;20208;-57
2022/05/19 04:59:29;;;;;;;4.63;4.32;;;;;;;;;;2082103;28;20180;-57
2022/05/19 05:00:29;;;;;;;5.00;4.35;;;;;;;;;;2082227;28;20219;-52
2022/05/19 05:01:29;;;;;;;5.03;4.60;;;;;;;;;;2082541;28;20244;-54
2022/05/19 05:02:29;;;;;;;5.38;4.88;;;;;;;;;;2082589;28;20165;-55
2022/05/19 05:03:30;;;;;;;6.07;4.57;;;;;;;;;;2082381;28;20175;-55
2022/05/19 05:04:30;;;;;;;8.43;4.45;;;;;;;;;;2081961;28;20640;-56
2022/05/19 05:05:30;;;;;;;4.38;3.97;;;;;;;;;;2081396;28;20545;-54
2022/05/19 05:06:33;;;;;;;4.40;4.10;;;;;;;;;;2080454;28;20587;-53
2022/05/19 05:07:33;;;;;;;5.47;4.30;;;;;;;;;;2080180;28;20180;-52
2022/05/19 05:08:34;;;;;;;9.63;4.95;;;;;;;;;;2081261;28;20212;-53
2022/05/19 05:09:34;;;;;;;4.30;3.88;;;;;;;;;;2082231;28;20823;-54
2022/05/19 05:10:34;;;;;;;6.78;4.50;;;;;;;;;;2082138;28;20191;-52
2022/05/19 05:11:35;;;;;;;6.05;4.70;;;;;;;;;;2080059;28;20176;-54
2022/05/19 05:12:35;;;;;;;4.93;4.53;;;;;;;;;;2076995;28;20189;-57
2022/05/19 05:13:35;;;;;;;4.50;4.20;;;;;;;;;;2082353;28;20176;-54
2022/05/19 05:14:36;;;;;;;6.43;4.63;;;;;;;;;;2080835;28;20168;-53
2022/05/19 05:15:38;;;;;;;5.45;4.53;;;;;;;;;;2081212;28;20188;-54
2022/05/19 05:16:38;;;;;;;8.80;5.78;;;;;;;;;;2082652;28;20208;-55
2022/05/19 05:17:38;;;;;;;4.45;4.15;;;;;;;;;;2082582;28;20592;-52
2022/05/19 05:19:45;;;;;;;8.75;5.10;;;;;;;;;;2059040;28;20288;-56
2022/05/19 05:20:45;;;;;;;4.97;4.50;;;;;;;;;;2066937;28;20620;-55
2022/05/19 05:21:47;;;;;;;5.10;4.57;;;;;;;;;;2068219;28;20666;-54
2022/05/19 05:22:47;;;;;;;7.38;4.85;;;;;;;;;;2071704;28;20212;-54
2022/05/19 05:23:48;;;;;;;4.82;4.43;;;;;;;;;;2064469;28;20364;-56
2022/05/19 05:24:48;;;;;;;11.05;4.35;;;;;;;;;;2065320;28;20216;-54
2022/05/19 05:25:48;;;;;;;6.38;4.22;;;;;;;;;;2063936;28;20186;-56
2022/05/19 05:26:48;;;;;;;5.97;4.53;;;;;;;;;;2065894;28;20176;-54
2022/05/19 05:27:48;;;;;;;6.40;4.72;;;;;;;;;;2065592;28;20225;-57
2022/05/19 05:28:49;;;;;;;5.05;4.68;;;;;;;;;;2065837;28;20170;-58
2022/05/19 05:29:49;;;;;;;4.68;4.30;;;;;;;;;;2065848;28;20267;-57
2022/05/19 05:30:51;;;;;;;5.72;4.60;;;;;;;;;;2065894;28;20193;-59
2022/05/19 05:31:53;;;;;;;4.50;4.13;;;;;;;;;;2066065;28;20538;-58
2022/05/19 05:32:53;;;;;;;5.47;4.85;;;;;;;;;;2065932;28;20182;-57
2022/05/19 05:33:54;;;;;;;6.88;5.00;;;;;;;;;;2064912;28;20689;-58
2022/05/19 05:34:54;;;;;;;4.57;4.18;;;;;;;;;;2059102;28;20233;-57
2022/05/19 05:35:54;;;;;;;7.40;4.50;;;;;;;;;;2062806;28;20174;-58
2022/05/19 05:36:54;;;;;;;4.72;4.22;;;;;;;;;;2062983;28;20193;-56
2022/05/19 05:37:54;;;;;;;4.65;4.32;;;;;;;;;;2068399;28;20235;-57
2022/05/19 05:38:57;;;;;;;5.10;3.85;;;;;;;;;;2070971;28;20173;-57
2022/05/19 05:39:57;;;;;;;8.02;4.18;;;;;;;;;;2063943;28;20279;-59
2022/05/19 05:40:59;;;;;;;4.95;4.40;;;;;;;;;;2062524;28;20174;-58
2022/05/19 05:41:59;;;;;;;6.97;4.60;;;;;;;;;;2065032;28;20173;-57
2022/05/19 05:43:06;;;;;;;4.75;4.43;;;;;;;;;;2068456;28;20649;-56
2022/05/19 05:44:06;;;;;;;4.72;4.30;;;;;;;;;;2072920;28;20537;-55
2022/05/19 05:45:07;;;;;;;5.15;4.60;;;;;;;;;;2069751;28;20192;-55
2022/05/19 05:46:11;;;;;;;5.07;4.60;;;;;;;;;;2063839;28;20220;-53
2022/05/19 05:47:11;;;;;;;4.60;4.20;;;;;;;;;;2065273;28;20189;-56
2022/05/19 05:48:12;;;;;;;6.18;4.40;;;;;;;;;;2065827;28;20193;-56
2022/05/19 05:49:12;;;;;;;4.90;4.50;;;;;;;;;;2065296;28;20189;-53
2022/05/19 05:50:13;;;;;;;6.30;4.07;;;;;;;;;;2070378;28;20212;-51
2022/05/19 05:51:13;;;;;;;5.35;4.22;;;;;;;;;;2068473;28;20169;-58
2022/05/19 05:52:14;;;;;;;5.40;4.25;;;;;;;;;;2059360;28;20212;-53
2022/05/19 05:53:14;;;;;;;4.68;4.38;;;;;;;;;;2064940;28;20191;-53
2022/05/19 05:54:14;;;;;;;4.45;4.15;;;;;;;;;;2064384;28;20201;-50
2022/05/19 05:55:15;;;;;;;4.63;4.32;;;;;;;;;;2064247;28;20182;-52
2022/05/19 05:56:17;;;;;;;5.15;4.38;;;;;;;;;;2063536;28;20207;-52
2022/05/19 05:57:17;;;;;;;5.22;4.82;;;;;;;;;;2065527;28;20761;-56
2022/05/19 05:58:17;;;;;;;4.90;4.38;;;;;;;;;;2064924;28;20193;-57
2022/05/19 05:59:18;;;;;;;6.47;4.45;;;;;;;;;;2063965;28;20197;-56
2022/05/19 06:00:19;;;;;;;4.97;4.00;;;;;;;;;;2065101;28;20630;-56
2022/05/19 06:01:19;;;;;;;5.07;4.60;;;;;;;;;;2070330;28;20188;-53
2022/05/19 06:02:20;;;;;;;4.82;4.18;;;;;;;;;;2066379;28;20193;-52
2022/05/19 06:03:20;;;;;;;6.78;4.30;;;;;;;;;;2065656;28;20180;-57
2022/05/19 06:04:20;;;;;;;4.57;4.22;;;;;;;;;;2065070;28;20260;-56
2022/05/19 06:05:21;;;;;;;5.63;4.05;;;;;;;;;;2063941;28;20547;-55
2022/05/19 06:06:21;;;;;;;5.07;4.10;;;;;;;;;;2064060;28;20268;-53
2022/05/19 06:07:21;;;;;;;4.22;3.92;;;;;;;;;;2065581;28;20653;-55
2022/05/19 06:08:21;;;;;;;5.13;4.20;;;;;;;;;;2064432;28;20212;-54
2022/05/19 06:09:22;;;;;;;4.68;4.28;;;;;;;;;;2065337;28;20548;-54
2022/05/19 06:10:22;;;;;;;7.28;4.32;;;;;;;;;;2065088;28;20236;-57
2022/05/19 06:11:22;;;;;;;6.05;4.22;;;;;;;;;;2065452;28;20199;-53
2022/05/19 06:12:23;;;;;;;6.25;4.40;;;;;;;;;;2064988;28;20601;-54
2022/05/19 06:13:25;;;;;;;4.20;3.90;;;;;;;;;;2065422;28;20657;-55
2022/05/19 06:14:25;;;;;;;4.15;3.72;;;;;;;;;;2064800;28;20185;-55